sensor_id;sensor_type;location;lat;lon;timestamp;P1;durP1;ratioP1;P2;durP2;ratioP2
34317;SDS011;20582;52.196;20.952;2022-11-25T00:01:44;104.72;;;30.02;;
34317;SDS011;20582;52.196;20.952;2022-11-25T00:04:10;112.90;;;31.05;;
34317;SDS011;20582;52.196;20.952;2022-11-25T00:06:36;116.78;;;32.22;;
34317;SDS011;20582;52.196;20.952;2022-11-25T00:09:03;122.50;;;32.55;;
34317;SDS011;20582;52.196;20.952;2022-11-25T00:11:30;133.43;;;34.03;;
34317;SDS011;20582;52.196;20.952;2022-11-25T00:13:56;129.90;;;35.40;;
34317;SDS011;20582;52.196;20.952;2022-11-25T00:16:22;120.75;;;33.47;;
34317;SDS011;20582;52.196;20.952;2022-11-25T00:18:51;118.00;;;33.35;;
34317;SDS011;20582;52.196;20.952;2022-11-25T00:21:18;123.47;;;33.83;;
34317;SDS011;20582;52.196;20.952;2022-11-25T00:23:49;136.70;;;35.78;;
34317;SDS011;20582;52.196;20.952;2022-11-25T00:28:42;119.97;;;33.28;;
34317;SDS011;20582;52.196;20.952;2022-11-25T00:31:10;120.72;;;31.63;;
34317;SDS011;20582;52.196;20.952;2022-11-25T00:33:36;112.78;;;31.48;;
34317;SDS011;20582;52.196;20.952;2022-11-25T00:36:03;128.25;;;34.13;;
34317;SDS011;20582;52.196;20.952;2022-11-25T00:38:29;133.90;;;35.72;;
34317;SDS011;20582;52.196;20.952;2022-11-25T00:40:55;139.13;;;36.75;;
34317;SDS011;20582;52.196;20.952;2022-11-25T00:43:40;125.47;;;35.75;;
34317;SDS011;20582;52.196;20.952;2022-11-25T00:46:25;136.75;;;35.97;;
34317;SDS011;20582;52.196;20.952;2022-11-25T00:48:51;146.30;;;38.55;;
34317;SDS011;20582;52.196;20.952;2022-11-25T00:51:17;122.47;;;33.33;;
34317;SDS011;20582;52.196;20.952;2022-11-25T00:53:43;118.50;;;30.52;;
34317;SDS011;20582;52.196;20.952;2022-11-25T00:56:09;113.40;;;32.42;;
34317;SDS011;20582;52.196;20.952;2022-11-25T00:58:38;111.60;;;31.52;;
34317;SDS011;20582;52.196;20.952;2022-11-25T01:01:04;106.55;;;29.38;;
34317;SDS011;20582;52.196;20.952;2022-11-25T01:03:30;98.78;;;28.20;;
34317;SDS011;20582;52.196;20.952;2022-11-25T01:06:00;105.32;;;29.58;;
34317;SDS011;20582;52.196;20.952;2022-11-25T01:08:28;104.22;;;27.30;;
34317;SDS011;20582;52.196;20.952;2022-11-25T01:11:01;101.72;;;28.10;;
34317;SDS011;20582;52.196;20.952;2022-11-25T01:13:27;103.85;;;29.60;;
34317;SDS011;20582;52.196;20.952;2022-11-25T01:15:53;116.63;;;30.40;;
34317;SDS011;20582;52.196;20.952;2022-11-25T01:18:19;105.07;;;28.38;;
34317;SDS011;20582;52.196;20.952;2022-11-25T01:20:45;99.35;;;28.20;;
34317;SDS011;20582;52.196;20.952;2022-11-25T01:23:11;112.38;;;30.40;;
34317;SDS011;20582;52.196;20.952;2022-11-25T01:25:37;104.43;;;28.05;;
34317;SDS011;20582;52.196;20.952;2022-11-25T01:28:04;113.90;;;29.40;;
34317;SDS011;20582;52.196;20.952;2022-11-25T01:30:30;121.53;;;30.20;;
34317;SDS011;20582;52.196;20.952;2022-11-25T01:32:56;107.20;;;28.75;;
34317;SDS011;20582;52.196;20.952;2022-11-25T01:35:22;120.85;;;29.77;;
34317;SDS011;20582;52.196;20.952;2022-11-25T01:37:48;133.07;;;33.75;;
34317;SDS011;20582;52.196;20.952;2022-11-25T01:40:14;130.60;;;31.00;;
34317;SDS011;20582;52.196;20.952;2022-11-25T01:42:44;134.80;;;33.85;;
34317;SDS011;20582;52.196;20.952;2022-11-25T01:47:36;125.75;;;29.63;;
34317;SDS011;20582;52.196;20.952;2022-11-25T01:50:03;143.88;;;32.80;;
34317;SDS011;20582;52.196;20.952;2022-11-25T01:52:30;146.00;;;32.75;;
34317;SDS011;20582;52.196;20.952;2022-11-25T01:54:59;139.07;;;33.30;;
34317;SDS011;20582;52.196;20.952;2022-11-25T01:57:45;141.45;;;32.78;;
34317;SDS011;20582;52.196;20.952;2022-11-25T02:00:12;147.07;;;34.08;;
34317;SDS011;20582;52.196;20.952;2022-11-25T02:02:38;132.23;;;29.10;;
34317;SDS011;20582;52.196;20.952;2022-11-25T02:05:08;139.43;;;33.97;;
34317;SDS011;20582;52.196;20.952;2022-11-25T02:07:36;136.05;;;30.73;;
34317;SDS011;20582;52.196;20.952;2022-11-25T02:10:03;133.27;;;30.95;;
34317;SDS011;20582;52.196;20.952;2022-11-25T02:12:29;126.53;;;31.75;;
34317;SDS011;20582;52.196;20.952;2022-11-25T02:14:56;137.18;;;33.50;;
34317;SDS011;20582;52.196;20.952;2022-11-25T02:17:23;138.05;;;33.83;;
34317;SDS011;20582;52.196;20.952;2022-11-25T02:20:03;139.88;;;33.63;;
34317;SDS011;20582;52.196;20.952;2022-11-25T02:25:05;129.70;;;31.20;;
34317;SDS011;20582;52.196;20.952;2022-11-25T02:27:31;132.75;;;30.65;;
34317;SDS011;20582;52.196;20.952;2022-11-25T02:29:57;124.10;;;31.98;;
34317;SDS011;20582;52.196;20.952;2022-11-25T02:32:23;135.48;;;34.10;;
34317;SDS011;20582;52.196;20.952;2022-11-25T02:34:49;149.43;;;33.70;;
34317;SDS011;20582;52.196;20.952;2022-11-25T02:37:16;142.18;;;34.25;;
34317;SDS011;20582;52.196;20.952;2022-11-25T02:39:42;127.35;;;31.85;;
34317;SDS011;20582;52.196;20.952;2022-11-25T02:42:08;130.38;;;30.83;;
34317;SDS011;20582;52.196;20.952;2022-11-25T02:44:34;137.82;;;34.30;;
34317;SDS011;20582;52.196;20.952;2022-11-25T02:47:00;138.77;;;34.20;;
34317;SDS011;20582;52.196;20.952;2022-11-25T02:49:26;139.27;;;35.28;;
34317;SDS011;20582;52.196;20.952;2022-11-25T02:51:52;118.88;;;30.15;;
34317;SDS011;20582;52.196;20.952;2022-11-25T02:54:18;126.28;;;31.75;;
34317;SDS011;20582;52.196;20.952;2022-11-25T02:56:44;119.20;;;30.42;;
34317;SDS011;20582;52.196;20.952;2022-11-25T02:59:10;113.70;;;30.08;;
34317;SDS011;20582;52.196;20.952;2022-11-25T03:01:36;107.28;;;29.13;;
34317;SDS011;20582;52.196;20.952;2022-11-25T03:04:02;100.40;;;27.45;;
34317;SDS011;20582;52.196;20.952;2022-11-25T03:06:29;114.72;;;27.98;;
34317;SDS011;20582;52.196;20.952;2022-11-25T03:08:55;103.80;;;28.77;;
34317;SDS011;20582;52.196;20.952;2022-11-25T03:11:21;115.72;;;29.08;;
34317;SDS011;20582;52.196;20.952;2022-11-25T03:14:07;112.35;;;30.80;;
34317;SDS011;20582;52.196;20.952;2022-11-25T03:16:33;121.03;;;32.17;;
34317;SDS011;20582;52.196;20.952;2022-11-25T03:18:59;106.78;;;29.23;;
34317;SDS011;20582;52.196;20.952;2022-11-25T03:21:25;102.75;;;30.25;;
34317;SDS011;20582;52.196;20.952;2022-11-25T03:23:51;107.30;;;28.63;;
34317;SDS011;20582;52.196;20.952;2022-11-25T03:26:17;118.57;;;32.92;;
34317;SDS011;20582;52.196;20.952;2022-11-25T03:28:43;116.78;;;35.55;;
34317;SDS011;20582;52.196;20.952;2022-11-25T03:31:09;112.88;;;33.28;;
34317;SDS011;20582;52.196;20.952;2022-11-25T03:33:36;122.88;;;32.63;;
34317;SDS011;20582;52.196;20.952;2022-11-25T03:36:01;116.72;;;33.03;;
34317;SDS011;20582;52.196;20.952;2022-11-25T03:38:27;111.18;;;31.77;;
34317;SDS011;20582;52.196;20.952;2022-11-25T03:40:53;118.75;;;33.17;;
34317;SDS011;20582;52.196;20.952;2022-11-25T03:43:20;113.35;;;33.40;;
34317;SDS011;20582;52.196;20.952;2022-11-25T03:45:49;123.35;;;34.40;;
34317;SDS011;20582;52.196;20.952;2022-11-25T03:48:15;125.82;;;37.78;;
34317;SDS011;20582;52.196;20.952;2022-11-25T03:50:41;117.68;;;35.00;;
34317;SDS011;20582;52.196;20.952;2022-11-25T03:53:07;114.18;;;34.00;;
34317;SDS011;20582;52.196;20.952;2022-11-25T03:55:33;139.85;;;36.67;;
34317;SDS011;20582;52.196;20.952;2022-11-25T03:57:59;135.68;;;35.63;;
34317;SDS011;20582;52.196;20.952;2022-11-25T04:00:25;137.32;;;38.20;;
34317;SDS011;20582;52.196;20.952;2022-11-25T04:02:51;120.68;;;34.83;;
34317;SDS011;20582;52.196;20.952;2022-11-25T04:05:17;123.45;;;35.72;;
34317;SDS011;20582;52.196;20.952;2022-11-25T04:07:43;113.53;;;33.35;;
34317;SDS011;20582;52.196;20.952;2022-11-25T04:10:09;125.93;;;33.58;;
34317;SDS011;20582;52.196;20.952;2022-11-25T04:12:35;128.35;;;35.85;;
34317;SDS011;20582;52.196;20.952;2022-11-25T04:15:10;112.57;;;33.90;;
34317;SDS011;20582;52.196;20.952;2022-11-25T04:17:36;117.00;;;35.95;;
34317;SDS011;20582;52.196;20.952;2022-11-25T04:20:02;115.68;;;33.90;;
34317;SDS011;20582;52.196;20.952;2022-11-25T04:22:29;112.00;;;34.67;;
34317;SDS011;20582;52.196;20.952;2022-11-25T04:24:55;110.63;;;31.75;;
34317;SDS011;20582;52.196;20.952;2022-11-25T04:27:20;112.05;;;35.58;;
34317;SDS011;20582;52.196;20.952;2022-11-25T04:29:46;108.63;;;33.78;;
34317;SDS011;20582;52.196;20.952;2022-11-25T04:32:13;108.55;;;34.55;;
34317;SDS011;20582;52.196;20.952;2022-11-25T04:34:39;108.30;;;33.65;;
34317;SDS011;20582;52.196;20.952;2022-11-25T04:37:05;96.45;;;32.67;;
34317;SDS011;20582;52.196;20.952;2022-11-25T04:39:31;98.47;;;30.95;;
34317;SDS011;20582;52.196;20.952;2022-11-25T04:41:57;107.18;;;32.13;;
34317;SDS011;20582;52.196;20.952;2022-11-25T04:44:41;99.10;;;32.35;;
34317;SDS011;20582;52.196;20.952;2022-11-25T04:47:07;106.30;;;33.38;;
34317;SDS011;20582;52.196;20.952;2022-11-25T04:49:33;108.60;;;31.60;;
34317;SDS011;20582;52.196;20.952;2022-11-25T04:51:59;106.47;;;33.45;;
34317;SDS011;20582;52.196;20.952;2022-11-25T04:54:25;102.25;;;31.08;;
34317;SDS011;20582;52.196;20.952;2022-11-25T04:56:51;104.72;;;32.90;;
34317;SDS011;20582;52.196;20.952;2022-11-25T04:59:17;109.15;;;32.97;;
34317;SDS011;20582;52.196;20.952;2022-11-25T05:02:02;103.65;;;30.77;;
34317;SDS011;20582;52.196;20.952;2022-11-25T05:04:27;98.25;;;29.25;;
34317;SDS011;20582;52.196;20.952;2022-11-25T05:06:53;113.47;;;32.08;;
34317;SDS011;20582;52.196;20.952;2022-11-25T05:09:19;96.47;;;28.75;;
34317;SDS011;20582;52.196;20.952;2022-11-25T05:11:45;105.05;;;27.95;;
34317;SDS011;20582;52.196;20.952;2022-11-25T05:14:12;94.75;;;27.88;;
34317;SDS011;20582;52.196;20.952;2022-11-25T05:16:38;110.60;;;27.90;;
34317;SDS011;20582;52.196;20.952;2022-11-25T05:19:04;111.88;;;28.15;;
34317;SDS011;20582;52.196;20.952;2022-11-25T05:21:31;112.38;;;32.75;;
34317;SDS011;20582;52.196;20.952;2022-11-25T05:23:57;107.20;;;30.25;;
34317;SDS011;20582;52.196;20.952;2022-11-25T05:26:23;88.60;;;27.23;;
34317;SDS011;20582;52.196;20.952;2022-11-25T05:28:49;104.85;;;29.67;;
34317;SDS011;20582;52.196;20.952;2022-11-25T05:31:15;102.38;;;28.85;;
34317;SDS011;20582;52.196;20.952;2022-11-25T05:33:41;94.25;;;27.58;;
34317;SDS011;20582;52.196;20.952;2022-11-25T05:36:07;101.80;;;26.40;;
34317;SDS011;20582;52.196;20.952;2022-11-25T05:38:33;96.22;;;27.58;;
34317;SDS011;20582;52.196;20.952;2022-11-25T05:41:00;97.75;;;26.90;;
34317;SDS011;20582;52.196;20.952;2022-11-25T05:43:26;103.88;;;26.92;;
34317;SDS011;20582;52.196;20.952;2022-11-25T05:45:52;102.20;;;27.90;;
34317;SDS011;20582;52.196;20.952;2022-11-25T05:48:18;106.97;;;28.17;;
34317;SDS011;20582;52.196;20.952;2022-11-25T05:50:44;106.07;;;28.52;;
34317;SDS011;20582;52.196;20.952;2022-11-25T05:53:10;96.75;;;27.08;;
34317;SDS011;20582;52.196;20.952;2022-11-25T05:55:36;100.60;;;27.55;;
34317;SDS011;20582;52.196;20.952;2022-11-25T05:58:02;100.72;;;26.90;;
34317;SDS011;20582;52.196;20.952;2022-11-25T06:00:30;102.00;;;27.15;;
34317;SDS011;20582;52.196;20.952;2022-11-25T06:02:56;102.53;;;28.42;;
34317;SDS011;20582;52.196;20.952;2022-11-25T06:05:22;101.03;;;28.95;;
34317;SDS011;20582;52.196;20.952;2022-11-25T06:07:48;96.68;;;27.77;;
34317;SDS011;20582;52.196;20.952;2022-11-25T06:10:15;97.90;;;29.42;;
34317;SDS011;20582;52.196;20.952;2022-11-25T06:12:41;109.32;;;30.55;;
34317;SDS011;20582;52.196;20.952;2022-11-25T06:15:07;97.22;;;28.63;;
34317;SDS011;20582;52.196;20.952;2022-11-25T06:17:33;88.45;;;28.02;;
34317;SDS011;20582;52.196;20.952;2022-11-25T06:19:59;103.97;;;31.70;;
34317;SDS011;20582;52.196;20.952;2022-11-25T06:22:25;111.18;;;30.23;;
34317;SDS011;20582;52.196;20.952;2022-11-25T06:24:51;104.05;;;31.05;;
34317;SDS011;20582;52.196;20.952;2022-11-25T06:27:17;106.30;;;29.42;;
34317;SDS011;20582;52.196;20.952;2022-11-25T06:29:43;108.60;;;30.83;;
34317;SDS011;20582;52.196;20.952;2022-11-25T06:32:09;110.82;;;31.15;;
34317;SDS011;20582;52.196;20.952;2022-11-25T06:34:35;117.78;;;31.83;;
34317;SDS011;20582;52.196;20.952;2022-11-25T06:37:05;102.57;;;32.03;;
34317;SDS011;20582;52.196;20.952;2022-11-25T06:39:31;105.57;;;32.17;;
34317;SDS011;20582;52.196;20.952;2022-11-25T06:41:57;107.35;;;33.88;;
34317;SDS011;20582;52.196;20.952;2022-11-25T06:44:23;114.25;;;31.77;;
34317;SDS011;20582;52.196;20.952;2022-11-25T06:46:49;98.10;;;31.15;;
34317;SDS011;20582;52.196;20.952;2022-11-25T06:49:15;92.93;;;29.20;;
34317;SDS011;20582;52.196;20.952;2022-11-25T06:51:41;87.82;;;29.73;;
34317;SDS011;20582;52.196;20.952;2022-11-25T06:54:07;96.22;;;32.03;;
34317;SDS011;20582;52.196;20.952;2022-11-25T06:56:34;87.22;;;30.40;;
34317;SDS011;20582;52.196;20.952;2022-11-25T06:59:00;95.57;;;29.52;;
34317;SDS011;20582;52.196;20.952;2022-11-25T07:01:28;90.35;;;30.10;;
34317;SDS011;20582;52.196;20.952;2022-11-25T07:03:56;97.35;;;28.67;;
34317;SDS011;20582;52.196;20.952;2022-11-25T07:06:23;84.03;;;27.80;;
34317;SDS011;20582;52.196;20.952;2022-11-25T07:08:49;91.95;;;31.67;;
34317;SDS011;20582;52.196;20.952;2022-11-25T07:11:16;83.07;;;27.33;;
34317;SDS011;20582;52.196;20.952;2022-11-25T07:13:42;98.13;;;30.83;;
34317;SDS011;20582;52.196;20.952;2022-11-25T07:16:09;88.30;;;30.52;;
34317;SDS011;20582;52.196;20.952;2022-11-25T07:18:36;101.88;;;34.20;;
34317;SDS011;20582;52.196;20.952;2022-11-25T07:21:09;95.60;;;32.03;;
34317;SDS011;20582;52.196;20.952;2022-11-25T07:23:36;101.82;;;33.70;;
34317;SDS011;20582;52.196;20.952;2022-11-25T07:26:03;101.00;;;32.60;;
34317;SDS011;20582;52.196;20.952;2022-11-25T07:28:30;114.88;;;40.38;;
34317;SDS011;20582;52.196;20.952;2022-11-25T07:31:02;104.88;;;35.85;;
34317;SDS011;20582;52.196;20.952;2022-11-25T07:33:28;112.63;;;34.00;;
34317;SDS011;20582;52.196;20.952;2022-11-25T07:35:54;112.20;;;35.90;;
34317;SDS011;20582;52.196;20.952;2022-11-25T07:38:20;104.20;;;32.00;;
34317;SDS011;20582;52.196;20.952;2022-11-25T07:40:46;101.45;;;31.02;;
34317;SDS011;20582;52.196;20.952;2022-11-25T07:43:14;96.88;;;28.70;;
34317;SDS011;20582;52.196;20.952;2022-11-25T07:45:40;97.85;;;30.67;;
34317;SDS011;20582;52.196;20.952;2022-11-25T07:48:06;103.63;;;29.55;;
34317;SDS011;20582;52.196;20.952;2022-11-25T07:50:32;89.55;;;28.23;;
34317;SDS011;20582;52.196;20.952;2022-11-25T07:52:58;92.82;;;28.38;;
34317;SDS011;20582;52.196;20.952;2022-11-25T07:55:24;95.05;;;30.13;;
34317;SDS011;20582;52.196;20.952;2022-11-25T07:57:50;94.55;;;29.90;;
34317;SDS011;20582;52.196;20.952;2022-11-25T08:00:16;89.05;;;29.90;;
34317;SDS011;20582;52.196;20.952;2022-11-25T08:02:42;100.25;;;30.42;;
34317;SDS011;20582;52.196;20.952;2022-11-25T08:05:08;96.65;;;31.08;;
34317;SDS011;20582;52.196;20.952;2022-11-25T08:07:35;106.40;;;31.40;;
34317;SDS011;20582;52.196;20.952;2022-11-25T08:10:02;106.20;;;30.90;;
34317;SDS011;20582;52.196;20.952;2022-11-25T08:12:30;107.80;;;31.52;;
34317;SDS011;20582;52.196;20.952;2022-11-25T08:14:56;103.70;;;29.90;;
34317;SDS011;20582;52.196;20.952;2022-11-25T08:17:22;103.47;;;29.27;;
34317;SDS011;20582;52.196;20.952;2022-11-25T08:19:48;106.57;;;30.90;;
34317;SDS011;20582;52.196;20.952;2022-11-25T08:22:14;103.97;;;32.63;;
34317;SDS011;20582;52.196;20.952;2022-11-25T08:24:40;99.20;;;31.55;;
34317;SDS011;20582;52.196;20.952;2022-11-25T08:27:06;103.82;;;29.30;;
34317;SDS011;20582;52.196;20.952;2022-11-25T08:29:33;98.30;;;30.92;;
34317;SDS011;20582;52.196;20.952;2022-11-25T08:31:59;99.13;;;30.73;;
34317;SDS011;20582;52.196;20.952;2022-11-25T08:34:25;106.93;;;30.75;;
34317;SDS011;20582;52.196;20.952;2022-11-25T08:36:51;107.03;;;32.63;;
34317;SDS011;20582;52.196;20.952;2022-11-25T08:39:18;103.57;;;31.42;;
34317;SDS011;20582;52.196;20.952;2022-11-25T08:41:44;106.03;;;31.58;;
34317;SDS011;20582;52.196;20.952;2022-11-25T08:44:10;101.40;;;30.75;;
34317;SDS011;20582;52.196;20.952;2022-11-25T08:46:37;100.97;;;31.95;;
34317;SDS011;20582;52.196;20.952;2022-11-25T08:49:04;110.32;;;33.25;;
34317;SDS011;20582;52.196;20.952;2022-11-25T08:51:32;98.78;;;33.15;;
34317;SDS011;20582;52.196;20.952;2022-11-25T08:53:58;96.97;;;33.70;;
34317;SDS011;20582;52.196;20.952;2022-11-25T08:56:26;94.93;;;31.30;;
34317;SDS011;20582;52.196;20.952;2022-11-25T08:58:52;104.25;;;32.95;;
34317;SDS011;20582;52.196;20.952;2022-11-25T09:01:18;103.68;;;33.22;;
34317;SDS011;20582;52.196;20.952;2022-11-25T09:03:46;100.60;;;33.00;;
34317;SDS011;20582;52.196;20.952;2022-11-25T09:06:12;96.00;;;29.38;;
34317;SDS011;20582;52.196;20.952;2022-11-25T09:08:39;94.68;;;32.47;;
34317;SDS011;20582;52.196;20.952;2022-11-25T09:11:05;93.65;;;34.28;;
34317;SDS011;20582;52.196;20.952;2022-11-25T09:13:32;93.88;;;31.30;;
34317;SDS011;20582;52.196;20.952;2022-11-25T09:15:58;98.55;;;32.45;;
34317;SDS011;20582;52.196;20.952;2022-11-25T09:18:25;98.80;;;33.65;;
34317;SDS011;20582;52.196;20.952;2022-11-25T09:20:54;102.20;;;34.72;;
34317;SDS011;20582;52.196;20.952;2022-11-25T09:23:20;104.40;;;34.13;;
34317;SDS011;20582;52.196;20.952;2022-11-25T09:25:51;103.35;;;35.35;;
34317;SDS011;20582;52.196;20.952;2022-11-25T09:28:17;106.10;;;36.53;;
34317;SDS011;20582;52.196;20.952;2022-11-25T09:30:43;97.07;;;34.85;;
34317;SDS011;20582;52.196;20.952;2022-11-25T09:33:09;96.70;;;33.08;;
34317;SDS011;20582;52.196;20.952;2022-11-25T09:35:35;91.88;;;33.80;;
34317;SDS011;20582;52.196;20.952;2022-11-25T09:38:01;90.78;;;33.83;;
34317;SDS011;20582;52.196;20.952;2022-11-25T09:42:55;89.78;;;32.08;;
34317;SDS011;20582;52.196;20.952;2022-11-25T09:51:32;82.15;;;31.02;;
34317;SDS011;20582;52.196;20.952;2022-11-25T09:54:05;76.38;;;28.88;;
34317;SDS011;20582;52.196;20.952;2022-11-25T09:56:37;77.25;;;28.63;;
34317;SDS011;20582;52.196;20.952;2022-11-25T09:59:14;80.75;;;32.10;;
34317;SDS011;20582;52.196;20.952;2022-11-25T10:02:10;82.97;;;31.95;;
34317;SDS011;20582;52.196;20.952;2022-11-25T10:04:30;82.57;;;30.20;;
34317;SDS011;20582;52.196;20.952;2022-11-25T10:07:00;91.20;;;30.50;;
34317;SDS011;20582;52.196;20.952;2022-11-25T10:09:27;85.72;;;30.40;;
34317;SDS011;20582;52.196;20.952;2022-11-25T10:11:59;87.10;;;32.38;;
34317;SDS011;20582;52.196;20.952;2022-11-25T10:19:37;78.20;;;31.20;;
34317;SDS011;20582;52.196;20.952;2022-11-25T10:24:39;89.10;;;29.60;;
34317;SDS011;20582;52.196;20.952;2022-11-25T10:27:05;86.50;;;28.52;;
34317;SDS011;20582;52.196;20.952;2022-11-25T10:29:31;91.57;;;33.28;;
34317;SDS011;20582;52.196;20.952;2022-11-25T10:32:10;85.30;;;30.77;;
34317;SDS011;20582;52.196;20.952;2022-11-25T10:34:42;94.15;;;32.55;;
34317;SDS011;20582;52.196;20.952;2022-11-25T10:37:11;83.38;;;30.05;;
34317;SDS011;20582;52.196;20.952;2022-11-25T10:39:38;86.40;;;30.73;;
34317;SDS011;20582;52.196;20.952;2022-11-25T10:42:05;87.05;;;31.52;;
34317;SDS011;20582;52.196;20.952;2022-11-25T10:44:37;88.00;;;31.95;;
34317;SDS011;20582;52.196;20.952;2022-11-25T10:52:34;72.55;;;29.33;;
34317;SDS011;20582;52.196;20.952;2022-11-25T10:55:08;88.20;;;30.60;;
34317;SDS011;20582;52.196;20.952;2022-11-25T10:57:35;91.13;;;31.70;;
34317;SDS011;20582;52.196;20.952;2022-11-25T11:00:02;85.20;;;30.95;;
34317;SDS011;20582;52.196;20.952;2022-11-25T11:02:29;87.00;;;30.48;;
34317;SDS011;20582;52.196;20.952;2022-11-25T11:05:00;83.15;;;30.05;;
34317;SDS011;20582;52.196;20.952;2022-11-25T11:07:31;87.38;;;30.50;;
34317;SDS011;20582;52.196;20.952;2022-11-25T11:10:11;86.18;;;32.60;;
34317;SDS011;20582;52.196;20.952;2022-11-25T11:12:37;79.80;;;29.63;;
34317;SDS011;20582;52.196;20.952;2022-11-25T11:15:17;76.07;;;28.92;;
34317;SDS011;20582;52.196;20.952;2022-11-25T11:17:44;80.45;;;31.27;;
34317;SDS011;20582;52.196;20.952;2022-11-25T11:22:47;85.95;;;31.10;;
34317;SDS011;20582;52.196;20.952;2022-11-25T11:27:39;86.68;;;30.13;;
34317;SDS011;20582;52.196;20.952;2022-11-25T11:30:16;81.43;;;30.83;;
34317;SDS011;20582;52.196;20.952;2022-11-25T11:32:44;90.18;;;31.10;;
34317;SDS011;20582;52.196;20.952;2022-11-25T11:37:49;86.40;;;30.40;;
34317;SDS011;20582;52.196;20.952;2022-11-25T11:48:19;74.65;;;29.77;;
34317;SDS011;20582;52.196;20.952;2022-11-25T12:03:59;85.40;;;33.53;;
34317;SDS011;20582;52.196;20.952;2022-11-25T12:06:27;82.93;;;32.80;;
34317;SDS011;20582;52.196;20.952;2022-11-25T12:08:55;74.35;;;30.60;;
34317;SDS011;20582;52.196;20.952;2022-11-25T12:11:27;82.30;;;30.35;;
34317;SDS011;20582;52.196;20.952;2022-11-25T12:14:06;86.10;;;34.63;;
34317;SDS011;20582;52.196;20.952;2022-11-25T12:16:57;82.10;;;32.22;;
34317;SDS011;20582;52.196;20.952;2022-11-25T12:24:49;92.32;;;31.55;;
34317;SDS011;20582;52.196;20.952;2022-11-25T12:27:17;96.18;;;33.58;;
34317;SDS011;20582;52.196;20.952;2022-11-25T12:37:37;93.43;;;36.03;;
34317;SDS011;20582;52.196;20.952;2022-11-25T12:43:11;107.13;;;37.03;;
34317;SDS011;20582;52.196;20.952;2022-11-25T12:45:41;101.00;;;35.83;;
34317;SDS011;20582;52.196;20.952;2022-11-25T12:48:08;107.00;;;37.13;;
34317;SDS011;20582;52.196;20.952;2022-11-25T12:50:46;99.30;;;35.97;;
34317;SDS011;20582;52.196;20.952;2022-11-25T12:53:26;101.80;;;34.90;;
34317;SDS011;20582;52.196;20.952;2022-11-25T12:55:55;107.07;;;35.40;;
34317;SDS011;20582;52.196;20.952;2022-11-25T13:09:29;115.75;;;36.17;;
34317;SDS011;20582;52.196;20.952;2022-11-25T13:12:06;110.88;;;37.72;;
34317;SDS011;20582;52.196;20.952;2022-11-25T13:17:14;110.65;;;36.92;;
34317;SDS011;20582;52.196;20.952;2022-11-25T13:19:40;109.80;;;38.05;;
34317;SDS011;20582;52.196;20.952;2022-11-25T13:24:45;115.88;;;37.53;;
34317;SDS011;20582;52.196;20.952;2022-11-25T13:29:55;113.45;;;37.85;;
34317;SDS011;20582;52.196;20.952;2022-11-25T13:32:28;106.75;;;37.13;;
34317;SDS011;20582;52.196;20.952;2022-11-25T13:37:39;106.10;;;36.75;;
34317;SDS011;20582;52.196;20.952;2022-11-25T13:40:18;105.55;;;37.63;;
34317;SDS011;20582;52.196;20.952;2022-11-25T13:42:45;109.45;;;38.78;;
34317;SDS011;20582;52.196;20.952;2022-11-25T13:45:28;105.90;;;39.17;;
34317;SDS011;20582;52.196;20.952;2022-11-25T13:47:55;103.30;;;39.30;;
34317;SDS011;20582;52.196;20.952;2022-11-25T13:50:28;105.50;;;38.08;;
34317;SDS011;20582;52.196;20.952;2022-11-25T13:52:58;104.97;;;35.72;;
34317;SDS011;20582;52.196;20.952;2022-11-25T13:55:32;107.68;;;38.67;;
34317;SDS011;20582;52.196;20.952;2022-11-25T14:13:10;110.90;;;43.13;;
34317;SDS011;20582;52.196;20.952;2022-11-25T14:15:43;111.97;;;40.22;;
34317;SDS011;20582;52.196;20.952;2022-11-25T14:21:02;129.88;;;42.70;;
34317;SDS011;20582;52.196;20.952;2022-11-25T14:23:36;130.32;;;45.58;;
34317;SDS011;20582;52.196;20.952;2022-11-25T14:26:12;130.65;;;42.28;;
34317;SDS011;20582;52.196;20.952;2022-11-25T14:28:53;119.68;;;41.55;;
34317;SDS011;20582;52.196;20.952;2022-11-25T14:31:22;119.45;;;42.25;;
34317;SDS011;20582;52.196;20.952;2022-11-25T14:33:56;121.50;;;44.80;;
34317;SDS011;20582;52.196;20.952;2022-11-25T14:36:39;105.68;;;39.92;;
34317;SDS011;20582;52.196;20.952;2022-11-25T14:39:14;109.45;;;39.00;;
34317;SDS011;20582;52.196;20.952;2022-11-25T14:41:43;117.80;;;39.50;;
34317;SDS011;20582;52.196;20.952;2022-11-25T14:44:15;108.68;;;41.45;;
34317;SDS011;20582;52.196;20.952;2022-11-25T14:46:50;119.50;;;42.65;;
34317;SDS011;20582;52.196;20.952;2022-11-25T14:49:16;118.80;;;40.72;;
34317;SDS011;20582;52.196;20.952;2022-11-25T14:51:42;116.10;;;41.55;;
34317;SDS011;20582;52.196;20.952;2022-11-25T14:54:11;122.75;;;42.83;;
34317;SDS011;20582;52.196;20.952;2022-11-25T14:56:37;118.30;;;41.65;;
34317;SDS011;20582;52.196;20.952;2022-11-25T14:59:04;122.53;;;43.38;;
34317;SDS011;20582;52.196;20.952;2022-11-25T15:01:33;119.65;;;42.83;;
34317;SDS011;20582;52.196;20.952;2022-11-25T15:04:21;120.47;;;43.50;;
34317;SDS011;20582;52.196;20.952;2022-11-25T15:06:49;125.18;;;45.45;;
34317;SDS011;20582;52.196;20.952;2022-11-25T15:11:44;117.55;;;42.45;;
34317;SDS011;20582;52.196;20.952;2022-11-25T15:14:13;110.90;;;40.92;;
34317;SDS011;20582;52.196;20.952;2022-11-25T15:16:43;116.38;;;42.78;;
34317;SDS011;20582;52.196;20.952;2022-11-25T15:19:13;114.75;;;44.90;;
34317;SDS011;20582;52.196;20.952;2022-11-25T15:21:41;123.20;;;43.80;;
34317;SDS011;20582;52.196;20.952;2022-11-25T15:24:26;123.97;;;42.97;;
34317;SDS011;20582;52.196;20.952;2022-11-25T15:26:54;127.72;;;47.30;;
34317;SDS011;20582;52.196;20.952;2022-11-25T15:29:20;123.05;;;43.72;;
34317;SDS011;20582;52.196;20.952;2022-11-25T15:31:47;129.25;;;43.65;;
34317;SDS011;20582;52.196;20.952;2022-11-25T15:34:13;120.43;;;43.13;;
34317;SDS011;20582;52.196;20.952;2022-11-25T15:36:42;120.10;;;42.80;;
34317;SDS011;20582;52.196;20.952;2022-11-25T15:39:15;123.38;;;42.50;;
34317;SDS011;20582;52.196;20.952;2022-11-25T15:41:42;122.93;;;44.67;;
34317;SDS011;20582;52.196;20.952;2022-11-25T15:44:16;121.18;;;44.92;;
34317;SDS011;20582;52.196;20.952;2022-11-25T15:46:47;122.65;;;45.17;;
34317;SDS011;20582;52.196;20.952;2022-11-25T15:49:15;125.68;;;43.22;;
34317;SDS011;20582;52.196;20.952;2022-11-25T15:51:43;124.18;;;44.15;;
34317;SDS011;20582;52.196;20.952;2022-11-25T15:54:37;122.72;;;43.45;;
34317;SDS011;20582;52.196;20.952;2022-11-25T15:57:13;119.80;;;41.60;;
34317;SDS011;20582;52.196;20.952;2022-11-25T16:07:39;112.97;;;43.33;;
34317;SDS011;20582;52.196;20.952;2022-11-25T16:15:46;112.38;;;43.20;;
34317;SDS011;20582;52.196;20.952;2022-11-25T16:18:15;112.28;;;41.25;;